Time;durP1;ratioP1;P1;durP2;ratioP2;P2;SDS_P1;SDS_P2;PMS_P1;PMS_P2;Temp;Humidity;BMP_temperature;BMP_pressure;BME280_temperature;BME280_humidity;BME280_pressure;Samples;Min_cycle;Max_cycle;Signal;HPM_P1;HPM_P2
2023/05/26 00:00:35;;;;;;;11.88;8.82;;;;;;;17.84;52.69;99649.41;5149359;27;20067;-75
2023/05/26 00:03:03;;;;;;;10.73;8.27;;;;;;;17.81;52.57;99646.97;5149582;27;20049;-74
2023/05/26 00:05:29;;;;;;;12.25;8.88;;;;;;;17.44;52.68;99596.28;5149009;27;20043;-76
2023/05/26 00:07:56;;;;;;;12.48;9.07;;;;;;;17.77;52.59;99649.06;5149259;27;20031;-75
2023/05/26 00:10:25;;;;;;;10.90;8.35;;;;;;;17.74;52.29;99648.44;5148789;27;20111;-74
2023/05/26 00:12:52;;;;;;;10.95;9.07;;;;;;;17.72;52.60;99650.41;5148890;27;20194;-75
2023/05/26 00:15:20;;;;;;;11.45;8.52;;;;;;;17.70;52.31;99647.84;5147975;27;20035;-74
2023/05/26 00:17:50;;;;;;;10.65;8.20;;;;;;;17.67;52.50;99647.25;5149010;27;20123;-75
2023/05/26 00:20:17;;;;;;;9.20;8.20;;;;;;;17.65;52.49;99647.34;5147898;27;20287;-74
2023/05/26 00:22:44;;;;;;;12.13;9.32;;;;;;;17.57;52.49;99647.94;5147868;27;20031;-75
2023/05/26 00:25:11;;;;;;;10.77;8.85;;;;;;;17.33;52.71;99603.47;5148963;27;20084;-74
2023/05/26 00:27:38;;;;;;;10.25;8.65;;;;;;;17.55;52.78;99643.69;5148899;27;20039;-75
2023/05/26 00:30:05;;;;;;;10.90;8.70;;;;;;;17.52;52.64;99635.88;5147750;27;20229;-76
2023/05/26 00:32:33;;;;;;;14.60;9.80;;;;;;;17.15;52.81;99576.28;5148482;27;20043;-74
2023/05/26 00:35:00;;;;;;;10.02;8.27;;;;;;;17.47;52.46;99641.59;5148423;27;20388;-75
2023/05/26 00:37:27;;;;;;;9.73;8.73;;;;;;;17.46;52.62;99645.25;5148368;27;20039;-75
2023/05/26 00:39:54;;;;;;;9.82;8.77;;;;;;;17.08;52.51;99583.09;5148612;27;20176;-75
2023/05/26 00:42:21;;;;;;;10.43;9.30;;;;;;;17.44;52.54;99641.84;5148127;27;20115;-75
2023/05/26 00:44:48;;;;;;;10.68;9.27;;;;;;;16.50;52.84;99484.06;5148814;27;20043;-76
2023/05/26 00:47:15;;;;;;;12.95;10.73;;;;;;;17.39;52.49;99637.81;5147165;27;20150;-76
2023/05/26 00:49:43;;;;;;;15.45;10.48;;;;;;;17.38;52.66;99636.13;5148676;27;20054;-76
2023/05/26 00:52:10;;;;;;;12.82;10.35;;;;;;;17.32;53.10;99629.41;5148599;27;20225;-75
2023/05/26 00:54:38;;;;;;;11.98;9.80;;;;;;;17.33;52.73;99635.63;5148104;27;20035;-75
2023/05/26 00:57:05;;;;;;;11.00;8.48;;;;;;;17.30;52.71;99645.59;5148593;27;20051;-76
2023/05/26 00:59:33;;;;;;;11.68;9.25;;;;;;;17.25;53.05;99637.06;5148534;27;20043;-76
2023/05/26 01:02:00;;;;;;;9.50;8.32;;;;;;;17.25;53.01;99644.25;5147928;27;20084;-75
2023/05/26 01:04:29;;;;;;;13.00;9.80;;;;;;;17.21;53.02;99645.47;5147014;27;20039;-76
2023/05/26 01:06:57;;;;;;;11.48;9.48;;;;;;;17.19;52.95;99642.88;5147859;27;20035;-76
2023/05/26 01:09:25;;;;;;;10.30;9.13;;;;;;;17.18;53.37;99645.69;5147610;27;20054;-75
2023/05/26 01:12:06;;;;;;;12.32;9.43;;;;;;;17.15;53.71;99635.22;5147932;27;20363;-75
2023/05/26 01:14:36;;;;;;;12.13;9.80;;;;;;;17.10;53.52;99632.88;5146854;27;20084;-75
2023/05/26 01:17:11;;;;;;;9.88;8.43;;;;;;;17.08;53.29;99639.34;5147699;27;20057;-76
2023/05/26 01:19:52;;;;;;;;;;;;;;;16.97;54.26;99635.66;5148111;27;20043;-76
2023/05/26 01:22:31;;;;;;;11.32;9.15;;;;;;;16.96;53.82;99636.63;5146698;27;19923;-76
2023/05/26 01:25:13;;;;;;;11.88;9.48;;;;;;;16.97;54.36;99632.97;5146653;27;20042;-76
2023/05/26 01:27:49;;;;;;;11.32;9.02;;;;;;;16.87;54.21;99626.63;5147443;27;20061;-76
2023/05/26 01:30:18;;;;;;;16.05;10.00;;;;;;;16.92;54.28;99635.16;5147482;27;20038;-76
2023/05/26 01:32:49;;;;;;;11.18;8.95;;;;;;;16.91;54.20;99640.63;5147543;27;20069;-76
2023/05/26 01:35:15;;;;;;;12.02;9.65;;;;;;;16.89;54.02;99638.06;5147903;27;20058;-76
2023/05/26 01:37:45;;;;;;;12.50;9.98;;;;;;;16.87;54.11;99637.34;5146368;27;20092;-76
2023/05/26 01:40:13;;;;;;;11.35;8.85;;;;;;;16.87;54.28;99641.84;5147224;27;20047;-76
2023/05/26 01:42:43;;;;;;;10.77;9.65;;;;;;;16.85;54.64;99639.28;5146150;27;20039;-76
2023/05/26 01:45:14;;;;;;;11.93;9.95;;;;;;;16.36;54.69;99570.72;5146283;27;20245;-76
2023/05/26 01:47:47;;;;;;;12.02;9.82;;;;;;;15.83;54.31;99483.00;5147097;27;20057;-76
2023/05/26 01:50:14;;;;;;;12.65;9.57;;;;;;;16.79;54.32;99649.59;5146197;27;20069;-76
2023/05/26 01:52:44;;;;;;;12.45;10.30;;;;;;;16.76;54.65;99649.84;5146086;27;20041;-76
2023/05/26 01:55:13;;;;;;;12.90;10.13;;;;;;;16.73;54.57;99650.91;5146983;27;20050;-76
2023/05/26 01:57:43;;;;;;;13.38;9.63;;;;;;;16.65;54.91;99656.81;5146093;27;20176;-76
2023/05/26 02:00:11;;;;;;;12.93;10.95;;;;;;;16.63;54.88;99657.91;5146935;27;20046;-76
2023/05/26 02:02:38;;;;;;;10.07;8.63;;;;;;;16.57;55.32;99653.88;5146055;27;20310;-76
2023/05/26 02:05:08;;;;;;;9.40;8.40;;;;;;;16.51;55.23;99662.34;5147110;27;20042;-76
2023/05/26 02:07:35;;;;;;;13.80;10.20;;;;;;;16.16;55.68;99608.81;5146812;27;20095;-76
2023/05/26 02:10:03;;;;;;;16.05;9.27;;;;;;;16.35;55.52;99654.63;5147032;27;20039;-76
2023/05/26 02:12:29;;;;;;;14.05;9.85;;;;;;;16.29;55.94;99654.22;5147260;27;20035;-76
2023/05/26 02:14:56;;;;;;;11.80;9.68;;;;;;;16.26;56.17;99644.59;5145896;27;20039;-76
2023/05/26 02:17:23;;;;;;;10.63;9.43;;;;;;;16.20;55.93;99642.38;5145861;27;20218;-76
2023/05/26 02:19:50;;;;;;;10.75;9.10;;;;;;;16.14;56.54;99642.84;5146434;27;20062;-76
2023/05/26 02:22:19;;;;;;;11.10;9.93;;;;;;;16.09;56.54;99633.44;5146625;27;20053;-76
2023/05/26 02:24:45;;;;;;;11.45;9.93;;;;;;;16.03;56.83;99640.09;5146588;28;20050;-76
2023/05/26 02:27:12;;;;;;;10.05;8.65;;;;;;;15.84;56.61;99615.66;5146841;28;20283;-76
2023/05/26 02:29:39;;;;;;;11.27;10.07;;;;;;;15.96;56.77;99647.72;5147111;28;20049;-76
2023/05/26 02:32:06;;;;;;;10.73;9.55;;;;;;;15.82;57.06;99630.97;5145627;28;20039;-76
2023/05/26 02:34:33;;;;;;;15.00;10.27;;;;;;;15.67;56.85;99599.03;5146463;28;20049;-76
2023/05/26 02:37:00;;;;;;;11.00;9.85;;;;;;;15.90;57.27;99642.81;5146790;28;20307;-76
2023/05/26 02:39:28;;;;;;;13.30;10.13;;;;;;;15.64;56.95;99601.03;5146472;28;20039;-76
2023/05/26 02:41:55;;;;;;;12.40;9.77;;;;;;;15.61;57.25;99599.44;5146227;27;20043;-76
2023/05/26 02:44:21;;;;;;;12.38;9.65;;;;;;;15.85;57.01;99644.09;5146453;27;20062;-76
2023/05/26 02:46:48;;;;;;;12.82;9.93;;;;;;;15.80;57.09;99644.44;5146375;28;20043;-76
2023/05/26 02:49:15;;;;;;;13.65;10.50;;;;;;;15.45;57.27;99590.81;5146352;28;20035;-76
2023/05/26 02:51:41;;;;;;;12.13;10.85;;;;;;;15.74;57.42;99644.03;5145680;28;20091;-76
2023/05/26 02:54:08;;;;;;;12.63;11.30;;;;;;;15.74;57.71;99644.03;5146619;28;20054;-76
2023/05/26 02:56:36;;;;;;;11.65;10.02;;;;;;;15.49;57.89;99604.81;5146865;28;20047;-76
2023/05/26 02:59:03;;;;;;;11.50;9.82;;;;;;;15.73;57.95;99643.16;5145969;28;20113;-76
2023/05/26 03:01:30;;;;;;;13.63;10.38;;;;;;;15.57;57.85;99616.66;5146272;28;20042;-76
2023/05/26 03:03:57;;;;;;;11.45;10.27;;;;;;;15.66;58.04;99632.06;5146537;28;20275;-76
2023/05/26 03:06:24;;;;;;;13.20;10.30;;;;;;;15.63;57.96;99634.94;5145421;28;20092;-76
2023/05/26 03:08:51;;;;;;;12.50;9.80;;;;;;;15.61;58.25;99639.53;5146772;28;20031;-76
2023/05/26 03:11:18;;;;;;;13.88;10.43;;;;;;;15.60;58.01;99634.28;5146138;28;20038;-77
2023/05/26 03:13:46;;;;;;;12.68;10.63;;;;;;;15.58;58.24;99644.22;5146172;28;20047;-77
2023/05/26 03:16:14;;;;;;;12.85;10.70;;;;;;;15.41;58.19;99618.72;5146428;28;20043;-76
2023/05/26 03:18:40;;;;;;;14.38;10.73;;;;;;;15.51;58.53;99638.47;5145263;28;20043;-76
2023/05/26 03:21:09;;;;;;;13.73;11.20;;;;;;;14.66;58.67;99490.53;5146106;28;20084;-77
2023/05/26 03:23:35;;;;;;;11.63;10.35;;;;;;;15.49;58.86;99645.75;5145174;28;20051;-76
2023/05/26 03:26:02;;;;;;;15.18;11.35;;;;;;;15.25;58.51;99594.91;5146051;28;20188;-76
2023/05/26 03:28:29;;;;;;;12.60;10.20;;;;;;;15.29;58.54;99601.75;5146034;28;20054;-76
2023/05/26 03:30:58;;;;;;;13.10;10.63;;;;;;;15.50;58.65;99639.44;5145828;27;20038;-76
2023/05/26 03:33:25;;;;;;;12.80;10.38;;;;;;;15.53;59.03;99633.88;5149833;27;20046;-76
2023/05/26 03:35:52;;;;;;;13.93;12.18;;;;;;;15.54;58.97;99638.25;5149872;27;20071;-76
2023/05/26 03:38:18;;;;;;;15.15;11.07;;;;;;;15.31;58.96;99596.31;5148728;27;20035;-76
2023/05/26 03:40:45;;;;;;;14.50;11.48;;;;;;;15.58;58.86;99639.75;5149500;27;20370;-77
2023/05/26 03:43:12;;;;;;;14.35;10.95;;;;;;;15.60;58.78;99637.81;5149236;27;20058;-77
2023/05/26 03:45:38;;;;;;;12.02;10.63;;;;;;;15.61;59.00;99634.19;5148654;27;20035;-76
2023/05/26 03:48:08;;;;;;;10.73;9.50;;;;;;;15.34;59.02;99582.72;5149970;27;20039;-76
2023/05/26 03:50:35;;;;;;;14.32;12.40;;;;;;;15.51;58.58;99600.22;5149422;27;20080;-76
2023/05/26 03:53:02;;;;;;;14.15;12.55;;;;;;;15.71;58.73;99637.94;5149808;27;20110;-76
2023/05/26 03:55:29;;;;;;;14.27;11.27;;;;;;;15.64;58.61;99620.59;5149557;27;20291;-76
2023/05/26 03:57:55;;;;;;;13.05;10.68;;;;;;;15.73;58.77;99635.16;5149769;27;20267;-76
2023/05/26 04:00:22;;;;;;;15.15;12.07;;;;;;;15.74;58.78;99638.69;5149352;27;20047;-76
2023/05/26 04:02:49;;;;;;;14.18;11.80;;;;;;;15.76;58.76;99637.59;5149434;27;20182;-76
2023/05/26 04:05:18;;;;;;;11.63;10.23;;;;;;;15.77;59.28;99641.13;5149618;27;20043;-76
2023/05/26 04:07:46;;;;;;;12.00;10.63;;;;;;;15.55;58.97;99599.03;5149068;27;20051;-76
2023/05/26 04:10:12;;;;;;;14.73;10.70;;;;;;;15.80;58.94;99633.75;5148986;27;20035;-76
2023/05/26 04:12:39;;;;;;;13.15;11.10;;;;;;;15.60;59.16;99604.91;5149440;27;20043;-76
2023/05/26 04:15:08;;;;;;;12.90;10.43;;;;;;;15.83;59.22;99640.69;5148082;27;20038;-76
2023/05/26 04:17:35;;;;;;;12.88;10.57;;;;;;;15.80;59.39;99639.09;5148039;27;20045;-76
2023/05/26 04:20:02;;;;;;;14.40;10.95;;;;;;;15.47;59.24;99580.03;5149388;27;20110;-76
2023/05/26 04:22:30;;;;;;;13.52;11.70;;;;;;;15.81;59.76;99645.28;5149030;27;20047;-76
2023/05/26 04:24:57;;;;;;;13.52;11.23;;;;;;;15.79;59.98;99640.06;5149314;27;20050;-76
2023/05/26 04:27:25;;;;;;;12.60;9.93;;;;;;;15.82;59.78;99636.31;5147801;27;20043;-76
2023/05/26 04:29:52;;;;;;;12.93;11.02;;;;;;;15.84;59.60;99635.22;5148537;27;20100;-76
2023/05/26 04:32:21;;;;;;;14.85;10.85;;;;;;;15.84;60.00;99635.22;5148491;27;20155;-76
2023/05/26 04:34:49;;;;;;;11.90;10.70;;;;;;;15.88;59.92;99635.84;5147616;27;20035;-77
2023/05/26 04:37:16;;;;;;;12.80;10.27;;;;;;;15.89;59.85;99633.06;5148437;27;20043;-76
2023/05/26 04:39:44;;;;;;;12.10;10.23;;;;;;;15.93;59.86;99633.72;5148407;27;20035;-77
2023/05/26 04:42:12;;;;;;;13.30;10.27;;;;;;;15.94;59.62;99633.59;5148571;27;20119;-77
2023/05/26 04:44:40;;;;;;;12.27;9.48;;;;;;;15.07;59.69;99484.09;5146718;27;20364;-76
2023/05/26 04:47:08;;;;;;;11.65;9.52;;;;;;;16.02;59.66;99638.38;5148853;27;20035;-77
2023/05/26 04:49:35;;;;;;;13.95;11.02;;;;;;;15.91;59.44;99614.25;5148786;27;20034;-77
2023/05/26 04:52:02;;;;;;;13.13;9.30;;;;;;;16.02;59.85;99639.25;5148348;27;20039;-77
2023/05/26 04:54:29;;;;;;;11.73;9.85;;;;;;;16.04;59.48;99636.44;5147189;27;20084;-76
2023/05/26 04:56:58;;;;;;;9.65;8.65;;;;;;;15.87;59.18;99605.59;5148288;27;20054;-76
2023/05/26 04:59:26;;;;;;;11.65;9.10;;;;;;;16.09;59.10;99628.09;5147038;27;20054;-77
2023/05/26 05:01:52;;;;;;;13.30;9.57;;;;;;;16.08;59.08;99627.25;5148293;27;20107;-76
2023/05/26 05:04:19;;;;;;;11.85;9.30;;;;;;;16.11;59.07;99640.38;5148147;27;20039;-76
2023/05/26 05:06:46;;;;;;;9.85;8.80;;;;;;;16.13;59.33;99635.78;5148180;27;20303;-76
2023/05/26 05:09:13;;;;;;;12.10;9.23;;;;;;;15.94;59.36;99595.31;5147799;27;20039;-76
2023/05/26 05:11:39;;;;;;;11.40;9.05;;;;;;;16.20;59.22;99641.53;5148015;27;20054;-76
2023/05/26 05:14:08;;;;;;;14.40;9.63;;;;;;;16.22;58.80;99642.25;5147745;27;20058;-76
2023/05/26 05:16:35;;;;;;;14.63;8.93;;;;;;;16.24;58.85;99634.97;5147387;27;20100;-77
2023/05/26 05:19:01;;;;;;;11.70;8.50;;;;;;;16.27;58.68;99640.97;5146994;27;20031;-76
2023/05/26 05:21:28;;;;;;;10.93;9.15;;;;;;;16.31;58.98;99641.59;5147558;27;20046;-76
2023/05/26 05:23:55;;;;;;;11.55;9.45;;;;;;;16.34;58.86;99647.56;5148027;27;20043;-76
2023/05/26 05:26:22;;;;;;;10.68;8.55;;;;;;;16.38;59.31;99650.00;5146629;27;20100;-76
2023/05/26 05:28:49;;;;;;;9.07;8.15;;;;;;;16.40;58.79;99646.25;5146539;27;20245;-76
2023/05/26 05:31:18;;;;;;;9.48;7.53;;;;;;;16.29;58.81;99627.47;5146805;27;20031;-76
2023/05/26 05:33:44;;;;;;;12.70;9.40;;;;;;;16.45;58.55;99641.41;5147405;27;20228;-77
2023/05/26 05:36:11;;;;;;;8.15;7.32;;;;;;;16.47;58.53;99641.28;5147504;27;20039;-77
2023/05/26 05:38:38;;;;;;;8.38;7.50;;;;;;;16.51;57.98;99651.66;5147508;27;20045;-76
2023/05/26 05:41:05;;;;;;;10.00;8.38;;;;;;;16.55;58.37;99645.09;5147187;27;20049;-76
2023/05/26 05:43:32;;;;;;;9.48;8.35;;;;;;;16.50;58.21;99636.56;5146900;27;20342;-76
2023/05/26 05:45:59;;;;;;;8.85;7.95;;;;;;;16.64;58.19;99651.59;5147335;27;20049;-76
2023/05/26 05:48:27;;;;;;;9.65;8.60;;;;;;;16.67;58.00;99656.75;5146139;27;20042;-77
2023/05/26 05:50:54;;;;;;;10.05;8.80;;;;;;;16.68;58.05;99647.75;5147529;27;20106;-76
2023/05/26 05:53:21;;;;;;;11.35;8.88;;;;;;;16.70;57.99;99652.97;5147541;27;20118;-76
2023/05/26 05:55:48;;;;;;;10.85;8.52;;;;;;;16.74;57.53;99646.41;5146060;27;20064;-76
2023/05/26 05:58:15;;;;;;;12.15;8.43;;;;;;;16.78;57.55;99648.75;5145992;27;20035;-76
2023/05/26 06:00:42;;;;;;;9.85;8.68;;;;;;;16.82;57.43;99644.88;5146857;27;20195;-76
2023/05/26 06:03:09;;;;;;;8.93;7.88;;;;;;;16.86;57.41;99643.66;5145958;27;20047;-76
2023/05/26 06:05:37;;;;;;;10.45;8.35;;;;;;;16.90;57.28;99650.50;5145925;27;20049;-76
2023/05/26 06:08:04;;;;;;;10.35;8.38;;;;;;;16.65;57.14;99611.31;5146552;27;20076;-76
2023/05/26 06:10:30;;;;;;;13.02;9.13;;;;;;;16.73;57.11;99621.47;5146885;27;20229;-76
2023/05/26 06:12:57;;;;;;;11.13;8.60;;;;;;;17.00;56.81;99666.69;5146786;27;20035;-76
2023/05/26 06:15:24;;;;;;;12.07;7.93;;;;;;;17.03;56.64;99658.44;5147242;27;20043;-76
2023/05/26 06:17:51;;;;;;;8.20;7.40;;;;;;;17.07;56.96;99661.72;5146794;27;20072;-76
2023/05/26 06:20:18;;;;;;;9.00;7.72;;;;;;;17.10;56.35;99667.69;5145597;27;20065;-76
2023/05/26 06:22:46;;;;;;;11.40;7.90;;;;;;;17.14;56.16;99660.28;5146458;27;20051;-76
2023/05/26 06:25:13;;;;;;;11.63;7.45;;;;;;;17.17;56.08;99660.91;5146493;28;20035;-76
2023/05/26 06:27:40;;;;;;;9.25;6.88;;;;;;;16.82;56.22;99590.47;5146515;28;20055;-76
2023/05/26 06:30:08;;;;;;;7.90;6.68;;;;;;;16.88;55.85;99601.56;5146613;28;20041;-76
2023/05/26 06:32:36;;;;;;;8.75;7.13;;;;;;;16.75;56.05;99567.84;5145553;28;20202;-76
2023/05/26 06:35:03;;;;;;;7.43;6.63;;;;;;;17.36;55.96;99657.66;5145630;28;20039;-76
2023/05/26 06:37:30;;;;;;;9.30;6.93;;;;;;;17.06;55.73;99598.44;5146791;28;20047;-76
2023/05/26 06:39:59;;;;;;;7.43;6.25;;;;;;;17.44;55.53;99655.25;5145444;28;20035;-76
2023/05/26 06:42:26;;;;;;;10.77;6.82;;;;;;;17.48;55.01;99662.06;5145938;27;20326;-76
2023/05/26 06:44:54;;;;;;;7.65;6.70;;;;;;;17.54;54.88;99655.38;5146558;28;20047;-76
2023/05/26 06:47:23;;;;;;;9.90;7.03;;;;;;;17.61;55.04;99662.84;5146900;28;20035;-76
2023/05/26 06:49:50;;;;;;;7.78;6.03;;;;;;;17.46;54.93;99625.66;5145421;28;20218;-76
2023/05/26 06:52:17;;;;;;;8.57;6.38;;;;;;;17.76;54.91;99668.81;5146125;28;20050;-76
2023/05/26 06:54:44;;;;;;;8.68;5.65;;;;;;;17.84;54.37;99665.50;5146574;28;20190;-77
2023/05/26 06:57:13;;;;;;;7.10;6.30;;;;;;;17.92;54.25;99673.78;5146851;28;20333;-76
2023/05/26 06:59:40;;;;;;;8.98;6.30;;;;;;;18.00;54.29;99657.94;5146226;28;20359;-77
2023/05/26 07:02:07;;;;;;;9.70;6.78;;;;;;;17.91;54.20;99624.66;5145405;28;20038;-77
2023/05/26 07:04:34;;;;;;;8.73;6.75;;;;;;;18.26;53.91;99666.53;5146790;28;20035;-77
2023/05/26 07:07:01;;;;;;;12.90;7.35;;;;;;;18.13;53.26;99621.09;5147962;27;20055;-77
2023/05/26 07:09:28;;;;;;;8.95;6.85;;;;;;;18.59;53.10;99668.28;5150437;27;20043;-77
2023/05/26 07:11:55;;;;;;;7.85;6.55;;;;;;;18.84;52.65;99667.09;5150172;27;20100;-77
2023/05/26 07:14:23;;;;;;;8.32;6.70;;;;;;;19.06;52.28;99661.59;5150522;27;20043;-77
2023/05/26 07:16:50;;;;;;;8.75;6.35;;;;;;;19.27;51.94;99661.59;5149180;27;20049;-77
2023/05/26 07:19:17;;;;;;;7.97;6.45;;;;;;;19.47;51.63;99660.75;5150523;27;20049;-77
2023/05/26 07:21:44;;;;;;;13.45;6.78;;;;;;;19.67;50.73;99652.75;5149901;27;20042;-77
2023/05/26 07:24:10;;;;;;;7.85;7.05;;;;;;;19.57;50.70;99612.41;5150137;27;20038;-77
2023/05/26 07:26:37;;;;;;;9.40;6.40;;;;;;;20.07;50.15;99658.16;5150312;27;20039;-77
2023/05/26 07:29:04;;;;;;;8.20;6.95;;;;;;;20.26;49.65;99668.16;5149720;27;20046;-77
2023/05/26 07:31:33;;;;;;;11.43;7.05;;;;;;;20.19;49.70;99620.25;5149735;27;20031;-77
2023/05/26 07:34:00;;;;;;;8.38;6.80;;;;;;;20.59;49.17;99638.16;5149554;27;20173;-77
2023/05/26 07:36:27;;;;;;;7.93;6.18;;;;;;;20.77;48.77;99622.13;5148783;27;20299;-77
2023/05/26 07:38:54;;;;;;;9.57;5.82;;;;;;;21.19;47.86;99670.34;5149794;27;20291;-77
2023/05/26 07:41:21;;;;;;;9.27;6.22;;;;;;;21.29;47.73;99663.06;5149767;27;20039;-77
2023/05/26 07:43:48;;;;;;;9.15;6.00;;;;;;;21.45;47.13;99656.09;5149308;27;20062;-77
2023/05/26 07:46:15;;;;;;;11.40;6.05;;;;;;;21.62;46.68;99664.41;5149462;27;20229;-77
2023/05/26 07:48:43;;;;;;;7.95;6.38;;;;;;;21.76;46.47;99667.47;5149193;27;20038;-77
2023/05/26 07:51:10;;;;;;;8.80;6.40;;;;;;;21.68;46.48;99635.00;5149946;27;20049;-77
2023/05/26 07:53:37;;;;;;;7.65;6.53;;;;;;;21.85;46.17;99646.88;5149644;27;20035;-77
2023/05/26 07:56:04;;;;;;;9.20;7.32;;;;;;;22.21;46.08;99676.66;5149060;27;20035;-77
2023/05/26 07:58:31;;;;;;;8.18;6.50;;;;;;;21.95;45.91;99604.50;5149075;27;20035;-77
2023/05/26 08:00:58;;;;;;;8.25;5.88;;;;;;;21.94;45.70;99594.72;5149090;27;20102;-77
2023/05/26 08:03:24;;;;;;;9.55;6.78;;;;;;;22.07;45.31;99583.53;5147963;27;20035;-77
2023/05/26 08:05:53;;;;;;;7.38;6.20;;;;;;;22.61;45.18;99624.97;5149084;27;20050;-77
2023/05/26 08:08:19;;;;;;;8.13;6.15;;;;;;;22.94;45.03;99666.66;5147926;27;20054;-77
2023/05/26 08:10:47;;;;;;;17.75;7.05;;;;;;;22.89;44.85;99625.72;5148375;27;20358;-77
2023/05/26 08:13:14;;;;;;;7.85;6.18;;;;;;;23.21;44.65;99665.69;5148906;27;20045;-77
2023/05/26 08:15:41;;;;;;;9.40;5.75;;;;;;;23.17;44.41;99653.47;5148966;27;20061;-77
2023/05/26 08:18:07;;;;;;;9.90;6.50;;;;;;;22.88;44.64;99607.81;5147883;27;20039;-76
2023/05/26 08:20:34;;;;;;;8.82;5.82;;;;;;;23.14;44.48;99657.34;5149061;27;20119;-75
2023/05/26 08:23:02;;;;;;;7.57;5.47;;;;;;;23.11;44.49;99670.34;5147846;27;20039;-75
2023/05/26 08:25:29;;;;;;;8.50;6.90;;;;;;;23.10;44.50;99655.97;5149179;27;20057;-76
2023/05/26 08:27:56;;;;;;;8.40;6.47;;;;;;;23.04;44.63;99664.72;5148123;27;20058;-76
2023/05/26 08:30:23;;;;;;;9.00;6.53;;;;;;;23.15;44.57;99667.16;5148974;27;20047;-75
2023/05/26 08:32:50;;;;;;;12.02;6.68;;;;;;;23.14;44.38;99668.16;5148329;27;20035;-76
2023/05/26 08:35:18;;;;;;;9.00;5.90;;;;;;;22.99;44.58;99667.88;5148138;27;20114;-75
2023/05/26 08:37:45;;;;;;;7.05;6.22;;;;;;;22.90;44.70;99666.09;5147491;27;20074;-76
2023/05/26 08:40:14;;;;;;;9.23;6.57;;;;;;;22.83;44.59;99666.88;5148304;27;20081;-75
2023/05/26 08:42:47;;;;;;;8.43;5.93;;;;;;;22.72;44.17;99667.97;5148279;27;20374;-75
2023/05/26 08:45:14;;;;;;;10.50;6.80;;;;;;;22.73;45.03;99670.53;5148533;27;20035;-75
2023/05/26 08:47:43;;;;;;;8.13;6.00;;;;;;;22.55;45.06;99626.44;5148045;27;20039;-75
2023/05/26 08:50:11;;;;;;;10.45;6.70;;;;;;;22.66;44.94;99671.28;5147949;27;20088;-76
2023/05/26 08:52:39;;;;;;;8.50;6.05;;;;;;;22.57;45.13;99667.66;5147386;27;20088;-76
2023/05/26 08:55:08;;;;;;;9.07;5.95;;;;;;;22.30;44.91;99617.19;5147556;27;20070;-76
2023/05/26 08:57:38;;;;;;;11.82;6.38;;;;;;;22.39;44.78;99643.28;5148546;27;20146;-75
2023/05/26 09:00:08;;;;;;;11.02;6.63;;;;;;;22.54;44.91;99677.88;5147097;27;20122;-75
2023/05/26 09:02:35;;;;;;;8.60;5.60;;;;;;;22.52;44.91;99672.63;5147917;27;20035;-75
2023/05/26 09:05:02;;;;;;;9.32;6.30;;;;;;;22.60;44.94;99669.22;5148098;27;20051;-75
2023/05/26 09:07:29;;;;;;;14.88;7.30;;;;;;;22.73;44.64;99661.56;5148018;27;20051;-75
2023/05/26 09:10:02;;;;;;;8.75;6.53;;;;;;;22.81;44.63;99660.78;5147900;27;20340;-75
2023/05/26 09:12:37;;;;;;;7.75;6.28;;;;;;;22.77;43.39;99665.66;5147731;27;20082;-75
2023/05/26 09:15:05;;;;;;;9.50;6.50;;;;;;;22.76;44.64;99666.66;5147763;27;20340;-75
2023/05/26 09:17:35;;;;;;;8.82;5.88;;;;;;;22.72;44.31;99654.47;5147807;27;20146;-75
2023/05/26 09:20:02;;;;;;;8.98;6.22;;;;;;;22.75;44.62;99664.97;5146500;27;20039;-75
2023/05/26 09:22:34;;;;;;;11.38;7.05;;;;;;;22.60;43.83;99607.06;5147865;27;20050;-75
2023/05/26 09:25:01;;;;;;;9.93;6.80;;;;;;;23.04;44.06;99654.75;5148008;27;20352;-75
2023/05/26 09:27:28;;;;;;;7.30;5.85;;;;;;;22.98;43.89;99630.19;5147573;27;20058;-75
2023/05/26 09:30:00;;;;;;;8.13;6.55;;;;;;;23.13;43.28;99628.63;5147372;27;20053;-75
2023/05/26 09:32:27;;;;;;;10.23;7.30;;;;;;;23.39;43.19;99655.69;5146463;27;20050;-75
2023/05/26 09:34:58;;;;;;;11.13;6.90;;;;;;;23.17;42.89;99611.06;5147508;27;20078;-75
2023/05/26 09:37:31;;;;;;;9.43;7.45;;;;;;;23.46;42.54;99648.63;5147495;27;20058;-75
2023/05/26 09:40:10;;;;;;;7.30;5.55;;;;;;;23.24;41.96;99593.22;5147674;27;20065;-75
2023/05/26 09:42:38;;;;;;;7.90;6.32;;;;;;;23.46;42.79;99620.75;5146807;27;20047;-75
2023/05/26 09:45:07;;;;;;;11.55;7.90;;;;;;;23.67;42.61;99654.50;5146210;27;20241;-75
2023/05/26 09:47:35;;;;;;;11.65;8.38;;;;;;;23.71;42.51;99652.31;5147340;27;20046;-75
2023/05/26 09:50:06;;;;;;;9.38;7.53;;;;;;;23.23;42.12;99561.78;5147500;27;20084;-75
2023/05/26 09:52:34;;;;;;;9.93;7.15;;;;;;;23.88;42.27;99654.09;5146001;27;20314;-75
2023/05/26 09:55:01;;;;;;;9.43;7.65;;;;;;;23.74;42.17;99607.88;5129241;27;20054;-75
2023/05/26 09:57:29;;;;;;;9.57;6.53;;;;;;;23.90;41.90;99616.06;5147406;27;20043;-75
2023/05/26 10:00:00;;;;;;;8.93;7.15;;;;;;;23.91;41.71;99605.06;5145780;27;20039;-75
2023/05/26 10:02:31;;;;;;;9.27;6.53;;;;;;;23.91;41.22;99587.97;5145446;27;20118;-75
2023/05/26 10:04:58;;;;;;;7.30;6.05;;;;;;;24.15;41.51;99638.66;5146925;27;20046;-75
2023/05/26 10:07:28;;;;;;;12.13;7.90;;;;;;;24.09;41.84;99636.63;5147274;27;20043;-75
2023/05/26 10:09:58;;;;;;;10.73;7.30;;;;;;;23.87;41.37;99605.53;5146094;27;20035;-75
2023/05/26 10:12:28;;;;;;;13.20;7.63;;;;;;;23.96;41.44;99643.31;5146602;27;20054;-75
2023/05/26 10:14:55;;;;;;;10.55;6.72;;;;;;;23.68;41.82;99622.88;5145605;27;20198;-75
2023/05/26 10:17:22;;;;;;;10.80;8.00;;;;;;;23.63;41.90;99603.59;5146737;27;20291;-75
2023/05/26 10:19:52;;;;;;;11.63;6.90;;;;;;;23.93;41.35;99640.94;5145657;27;20039;-75
2023/05/26 10:22:27;;;;;;;9.25;6.85;;;;;;;24.00;41.05;99649.28;5146612;27;20057;-75
2023/05/26 10:24:59;;;;;;;9.43;6.07;;;;;;;23.84;41.00;99597.75;5146493;27;20210;-75
2023/05/26 10:27:32;;;;;;;8.82;6.93;;;;;;;24.01;41.21;99634.72;5146942;28;20046;-75
2023/05/26 10:30:08;;;;;;;8.57;6.80;;;;;;;23.72;40.48;99593.66;5146927;28;20039;-75
2023/05/26 10:32:49;;;;;;;8.52;7.28;;;;;;;23.96;39.86;99631.63;5146263;28;20456;-75
2023/05/26 10:35:31;;;;;;;11.52;7.93;;;;;;;23.96;40.14;99629.78;5129126;28;20031;-75
2023/05/26 10:38:12;;;;;;;14.70;8.75;;;;;;;24.05;40.48;99627.97;5147051;28;20047;-75
2023/05/26 10:40:50;;;;;;;10.35;7.82;;;;;;;24.17;40.63;99625.81;5146825;27;20046;-75
2023/05/26 10:43:21;;;;;;;8.77;6.95;;;;;;;24.24;40.51;99616.88;5150361;27;20059;-75
2023/05/26 10:45:52;;;;;;;7.88;7.07;;;;;;;24.33;40.19;99629.41;5150555;27;20042;-75
2023/05/26 10:48:19;;;;;;;8.25;7.25;;;;;;;24.40;40.23;99632.31;5150191;27;20107;-75
2023/05/26 10:51:10;;;;;;;10.85;7.93;;;;;;;24.48;38.24;99618.78;5150563;27;20045;-75
2023/05/26 10:53:42;;;;;;;8.52;6.72;;;;;;;24.48;38.72;99616.06;5150181;27;20147;-75
2023/05/26 10:56:12;;;;;;;7.43;6.20;;;;;;;24.43;39.89;99615.72;5150158;27;20038;-75
2023/05/26 10:58:41;;;;;;;10.00;7.00;;;;;;;24.29;39.68;99587.41;5150793;27;20336;-75
2023/05/26 11:01:11;;;;;;;9.75;6.60;;;;;;;24.55;39.58;99617.09;5149457;27;20046;-75
2023/05/26 11:03:42;;;;;;;10.20;6.93;;;;;;;24.44;39.65;99579.47;5150483;27;20322;-75
2023/05/26 11:06:14;;;;;;;11.05;7.43;;;;;;;24.78;39.12;99605.63;5150249;27;20126;-75
2023/05/26 11:08:45;;;;;;;7.95;6.57;;;;;;;24.49;39.48;99565.44;5150618;27;20039;-75
2023/05/26 11:11:13;;;;;;;9.65;7.13;;;;;;;24.73;39.56;99607.97;5150671;27;20041;-76
2023/05/26 11:13:44;;;;;;;12.27;8.82;;;;;;;24.17;39.01;99550.84;5148981;27;20046;-76
2023/05/26 11:16:20;;;;;;;10.45;8.68;;;;;;;24.61;38.39;99623.69;5149172;27;20045;-75
2023/05/26 11:18:51;;;;;;;9.10;7.95;;;;;;;24.19;39.71;99547.97;5149013;27;20041;-76
2023/05/26 11:21:26;;;;;;;10.82;7.50;;;;;;;24.58;38.50;99619.47;5148484;27;20057;-75
2023/05/26 11:23:57;;;;;;;8.98;7.20;;;;;;;24.58;38.60;99616.75;5148961;27;20043;-76
2023/05/26 11:26:25;;;;;;;7.88;6.97;;;;;;;24.59;39.34;99621.16;5150146;27;20043;-76
2023/05/26 11:28:53;;;;;;;7.93;6.38;;;;;;;24.28;39.11;99560.50;5149046;27;20076;-76
2023/05/26 11:31:25;;;;;;;7.15;6.03;;;;;;;24.63;39.14;99608.13;5149767;27;20031;-76